EHGG

Eelde Airport

Groningen, The Netherlands
TAF EHGG 210520Z 2106/2212 01006KT 5000 BR NSC BECMG 2106/2108 CAVOK
Issued Valid From Valid To
Apr-21 @ 05:20 UTC
(4 hours ago)
Apr-21 @ 06:00 UTC
(4 hours ago)
Apr-22 @ 12:00 UTC
(-1 days ago)
Apr-21 @ 06:00 to Apr-22 @ 12:00
TAF EHGG 210520Z 2106/2212 01006KT 5000 BR NSC
Wind Visibility Clouds Conditions
10° at 6 knots 5,005 meters
  • No significant clouds
  • Mist
Becoming Apr-21 @ 06:00 to Apr-22 @ 12:00
BECMG 2106/2108 CAVOK
Wind Visibility Clouds Conditions
10° at 6 knots 10,000+ meters
  • No significant clouds
TAF EHGG 210520Z 2106/2212 01006KT 5000 BR NSC BECMG 2106/2108 CAVOK
Issued Apr-21 @ 05:20 UTC
(4 hours ago)
Valid From Apr-21 @ 06:00 UTC
(4 hours ago)
Valid To Apr-22 @ 12:00 UTC
(-1 days ago)
Apr-21 @ 06:00 - Apr-22 @ 12:00
Wind Visibility
10° at 6 knots 5,005 meters
Clouds
  • No significant clouds
Conditions
  • Mist
Becoming Apr-21 @ 06:00 - Apr-22 @ 12:00
Wind Visibility
10° at 6 knots 10,000+ meters
Clouds
  • No significant clouds
Conditions